sensor_id;sensor_type;location;lat;lon;timestamp;temperature;humidity
22249;DHT22;67538;52.180;5.646;2023-10-08T00:01:19;18.10;99.90
22249;DHT22;67538;52.180;5.646;2023-10-08T00:03:47;18.00;99.90
22249;DHT22;67538;52.180;5.646;2023-10-08T00:06:16;18.00;99.90
22249;DHT22;67538;52.180;5.646;2023-10-08T00:08:46;18.10;99.90
22249;DHT22;67538;52.180;5.646;2023-10-08T00:11:13;18.00;99.90
22249;DHT22;67538;52.180;5.646;2023-10-08T00:13:41;18.00;99.90
22249;DHT22;67538;52.180;5.646;2023-10-08T00:16:12;18.00;99.90
22249;DHT22;67538;52.180;5.646;2023-10-08T00:18:41;18.00;99.90
22249;DHT22;67538;52.180;5.646;2023-10-08T00:21:14;18.00;99.90
22249;DHT22;67538;52.180;5.646;2023-10-08T00:23:52;18.00;99.90
22249;DHT22;67538;52.180;5.646;2023-10-08T00:26:20;17.90;99.90
22249;DHT22;67538;52.180;5.646;2023-10-08T00:28:54;17.90;99.90
22249;DHT22;67538;52.180;5.646;2023-10-08T00:31:24;17.90;99.90
22249;DHT22;67538;52.180;5.646;2023-10-08T00:34:02;17.90;99.90
22249;DHT22;67538;52.180;5.646;2023-10-08T00:36:31;17.80;99.90
22249;DHT22;67538;52.180;5.646;2023-10-08T00:38:59;17.80;99.90
22249;DHT22;67538;52.180;5.646;2023-10-08T00:41:29;17.80;99.90
22249;DHT22;67538;52.180;5.646;2023-10-08T00:43:59;17.80;99.90
22249;DHT22;67538;52.180;5.646;2023-10-08T00:46:28;17.80;99.90
22249;DHT22;67538;52.180;5.646;2023-10-08T00:48:59;17.70;99.90
22249;DHT22;67538;52.180;5.646;2023-10-08T00:51:44;17.70;99.90
22249;DHT22;67538;52.180;5.646;2023-10-08T00:54:13;17.70;99.90
22249;DHT22;67538;52.180;5.646;2023-10-08T00:56:46;17.70;99.90
22249;DHT22;67538;52.180;5.646;2023-10-08T00:59:19;17.60;99.90
22249;DHT22;67538;52.180;5.646;2023-10-08T01:01:51;17.60;99.90
22249;DHT22;67538;52.180;5.646;2023-10-08T01:04:25;17.60;99.90
22249;DHT22;67538;52.180;5.646;2023-10-08T01:06:56;17.50;99.90
22249;DHT22;67538;52.180;5.646;2023-10-08T01:09:27;17.50;99.90
22249;DHT22;67538;52.180;5.646;2023-10-08T01:12:08;17.50;99.90
22249;DHT22;67538;52.180;5.646;2023-10-08T01:14:38;17.50;99.90
22249;DHT22;67538;52.180;5.646;2023-10-08T01:17:09;17.50;99.90
22249;DHT22;67538;52.180;5.646;2023-10-08T01:19:39;17.40;99.90
22249;DHT22;67538;52.180;5.646;2023-10-08T01:22:09;17.40;99.90
22249;DHT22;67538;52.180;5.646;2023-10-08T01:24:44;17.50;99.90
22249;DHT22;67538;52.180;5.646;2023-10-08T01:27:14;17.40;99.90
22249;DHT22;67538;52.180;5.646;2023-10-08T01:29:47;17.40;99.90
22249;DHT22;67538;52.180;5.646;2023-10-08T01:32:15;17.40;99.90
22249;DHT22;67538;52.180;5.646;2023-10-08T01:34:43;17.40;99.90
22249;DHT22;67538;52.180;5.646;2023-10-08T01:37:14;17.40;99.90
22249;DHT22;67538;52.180;5.646;2023-10-08T01:39:43;17.40;99.90
22249;DHT22;67538;52.180;5.646;2023-10-08T01:42:11;17.30;99.90
22249;DHT22;67538;52.180;5.646;2023-10-08T01:44:44;17.30;99.90
22249;DHT22;67538;52.180;5.646;2023-10-08T01:47:13;17.30;99.90
22249;DHT22;67538;52.180;5.646;2023-10-08T01:49:42;17.20;99.90
22249;DHT22;67538;52.180;5.646;2023-10-08T01:52:10;17.20;99.90
22249;DHT22;67538;52.180;5.646;2023-10-08T01:54:45;17.20;99.90
22249;DHT22;67538;52.180;5.646;2023-10-08T01:57:12;17.20;99.90
22249;DHT22;67538;52.180;5.646;2023-10-08T01:59:40;17.20;99.90
22249;DHT22;67538;52.180;5.646;2023-10-08T02:02:07;17.10;99.90
22249;DHT22;67538;52.180;5.646;2023-10-08T02:04:35;17.10;99.90
22249;DHT22;67538;52.180;5.646;2023-10-08T02:07:02;17.10;99.90
22249;DHT22;67538;52.180;5.646;2023-10-08T02:09:33;17.10;99.90
22249;DHT22;67538;52.180;5.646;2023-10-08T02:12:02;17.10;99.90
22249;DHT22;67538;52.180;5.646;2023-10-08T02:14:29;17.10;99.90
22249;DHT22;67538;52.180;5.646;2023-10-08T02:16:58;17.10;99.90
22249;DHT22;67538;52.180;5.646;2023-10-08T02:19:27;17.10;99.90
22249;DHT22;67538;52.180;5.646;2023-10-08T02:21:54;17.10;99.90
22249;DHT22;67538;52.180;5.646;2023-10-08T02:24:22;17.10;99.90
22249;DHT22;67538;52.180;5.646;2023-10-08T02:26:50;17.20;99.90
22249;DHT22;67538;52.180;5.646;2023-10-08T02:29:20;17.20;99.90
22249;DHT22;67538;52.180;5.646;2023-10-08T02:31:47;17.20;99.90
22249;DHT22;67538;52.180;5.646;2023-10-08T02:34:14;17.20;99.90
22249;DHT22;67538;52.180;5.646;2023-10-08T02:36:42;17.20;99.90
22249;DHT22;67538;52.180;5.646;2023-10-08T02:39:09;17.20;99.90
22249;DHT22;67538;52.180;5.646;2023-10-08T02:41:51;17.10;99.90
22249;DHT22;67538;52.180;5.646;2023-10-08T02:44:21;17.10;99.90
22249;DHT22;67538;52.180;5.646;2023-10-08T02:46:50;17.10;99.90
22249;DHT22;67538;52.180;5.646;2023-10-08T02:49:19;17.10;99.90
22249;DHT22;67538;52.180;5.646;2023-10-08T02:51:50;17.00;99.90
22249;DHT22;67538;52.180;5.646;2023-10-08T02:54:17;17.00;99.90
22249;DHT22;67538;52.180;5.646;2023-10-08T02:56:45;17.00;99.90
22249;DHT22;67538;52.180;5.646;2023-10-08T02:59:13;17.00;99.90
22249;DHT22;67538;52.180;5.646;2023-10-08T03:01:42;17.00;99.90
22249;DHT22;67538;52.180;5.646;2023-10-08T03:04:09;17.00;99.90
22249;DHT22;67538;52.180;5.646;2023-10-08T03:06:44;16.90;99.90
22249;DHT22;67538;52.180;5.646;2023-10-08T03:09:15;16.90;99.90
22249;DHT22;67538;52.180;5.646;2023-10-08T03:11:47;16.90;99.90
22249;DHT22;67538;52.180;5.646;2023-10-08T03:14:15;16.90;99.90
22249;DHT22;67538;52.180;5.646;2023-10-08T03:16:49;16.90;99.90
22249;DHT22;67538;52.180;5.646;2023-10-08T03:19:18;16.80;99.90
22249;DHT22;67538;52.180;5.646;2023-10-08T03:21:46;16.90;99.90
22249;DHT22;67538;52.180;5.646;2023-10-08T03:24:21;16.80;99.90
22249;DHT22;67538;52.180;5.646;2023-10-08T03:27:03;16.80;99.90
22249;DHT22;67538;52.180;5.646;2023-10-08T03:29:38;16.80;99.90
22249;DHT22;67538;52.180;5.646;2023-10-08T03:32:09;16.90;99.90
22249;DHT22;67538;52.180;5.646;2023-10-08T03:34:44;16.80;99.90
22249;DHT22;67538;52.180;5.646;2023-10-08T03:37:12;16.80;99.90
22249;DHT22;67538;52.180;5.646;2023-10-08T03:39:46;16.80;99.90
22249;DHT22;67538;52.180;5.646;2023-10-08T03:42:26;16.90;99.90
22249;DHT22;67538;52.180;5.646;2023-10-08T03:44:59;16.90;99.90
22249;DHT22;67538;52.180;5.646;2023-10-08T03:47:37;16.80;99.90
22249;DHT22;67538;52.180;5.646;2023-10-08T03:50:06;16.60;99.90
22249;DHT22;67538;52.180;5.646;2023-10-08T03:52:33;16.40;99.90
22249;DHT22;67538;52.180;5.646;2023-10-08T03:55:03;16.40;99.90
22249;DHT22;67538;52.180;5.646;2023-10-08T03:57:39;16.30;99.90
22249;DHT22;67538;52.180;5.646;2023-10-08T04:00:11;16.30;99.90
22249;DHT22;67538;52.180;5.646;2023-10-08T04:02:45;16.20;99.90
22249;DHT22;67538;52.180;5.646;2023-10-08T04:05:20;16.20;99.90
22249;DHT22;67538;52.180;5.646;2023-10-08T04:07:53;16.10;99.90
22249;DHT22;67538;52.180;5.646;2023-10-08T04:10:40;16.00;99.90
22249;DHT22;67538;52.180;5.646;2023-10-08T04:13:34;16.00;99.90
22249;DHT22;67538;52.180;5.646;2023-10-08T04:16:10;15.90;99.90
22249;DHT22;67538;52.180;5.646;2023-10-08T04:18:38;15.90;99.90
22249;DHT22;67538;52.180;5.646;2023-10-08T04:21:06;15.70;99.90
22249;DHT22;67538;52.180;5.646;2023-10-08T04:23:39;15.50;99.90
22249;DHT22;67538;52.180;5.646;2023-10-08T04:26:06;15.40;99.90
22249;DHT22;67538;52.180;5.646;2023-10-08T04:28:34;15.30;99.90
22249;DHT22;67538;52.180;5.646;2023-10-08T04:31:03;15.10;99.90
22249;DHT22;67538;52.180;5.646;2023-10-08T04:33:43;14.90;99.90
22249;DHT22;67538;52.180;5.646;2023-10-08T04:36:11;14.80;99.90
22249;DHT22;67538;52.180;5.646;2023-10-08T04:38:43;14.70;99.90
22249;DHT22;67538;52.180;5.646;2023-10-08T04:41:14;14.60;99.90
22249;DHT22;67538;52.180;5.646;2023-10-08T04:43:45;14.60;99.90
22249;DHT22;67538;52.180;5.646;2023-10-08T04:46:15;14.50;99.90
22249;DHT22;67538;52.180;5.646;2023-10-08T04:49:06;14.50;99.90
22249;DHT22;67538;52.180;5.646;2023-10-08T04:51:44;14.40;99.90
22249;DHT22;67538;52.180;5.646;2023-10-08T04:54:11;14.40;99.90
22249;DHT22;67538;52.180;5.646;2023-10-08T04:56:42;14.30;99.90
22249;DHT22;67538;52.180;5.646;2023-10-08T04:59:09;14.20;99.90
22249;DHT22;67538;52.180;5.646;2023-10-08T05:01:38;14.20;99.90
22249;DHT22;67538;52.180;5.646;2023-10-08T05:04:14;14.20;99.90
22249;DHT22;67538;52.180;5.646;2023-10-08T05:06:52;14.10;99.90
22249;DHT22;67538;52.180;5.646;2023-10-08T05:09:47;14.10;99.90
22249;DHT22;67538;52.180;5.646;2023-10-08T05:12:27;14.10;99.90
22249;DHT22;67538;52.180;5.646;2023-10-08T05:15:04;14.00;99.90
22249;DHT22;67538;52.180;5.646;2023-10-08T05:17:51;14.00;99.90
22249;DHT22;67538;52.180;5.646;2023-10-08T05:20:36;13.90;99.90
22249;DHT22;67538;52.180;5.646;2023-10-08T05:23:20;13.90;99.90
22249;DHT22;67538;52.180;5.646;2023-10-08T05:26:07;14.00;99.90
22249;DHT22;67538;52.180;5.646;2023-10-08T05:28:36;14.00;99.90
22249;DHT22;67538;52.180;5.646;2023-10-08T05:31:13;13.90;99.90
22249;DHT22;67538;52.180;5.646;2023-10-08T05:34:02;13.90;99.90
22249;DHT22;67538;52.180;5.646;2023-10-08T05:36:45;13.90;99.90
22249;DHT22;67538;52.180;5.646;2023-10-08T05:39:38;13.90;99.90
22249;DHT22;67538;52.180;5.646;2023-10-08T05:42:12;13.90;99.90
22249;DHT22;67538;52.180;5.646;2023-10-08T05:44:39;13.90;99.90
22249;DHT22;67538;52.180;5.646;2023-10-08T05:47:11;13.90;99.90
22249;DHT22;67538;52.180;5.646;2023-10-08T05:50:05;13.90;99.90
22249;DHT22;67538;52.180;5.646;2023-10-08T05:52:51;13.80;99.90
22249;DHT22;67538;52.180;5.646;2023-10-08T05:55:28;13.80;99.90
22249;DHT22;67538;52.180;5.646;2023-10-08T05:58:02;13.80;99.90
22249;DHT22;67538;52.180;5.646;2023-10-08T06:00:50;13.80;99.90
22249;DHT22;67538;52.180;5.646;2023-10-08T06:03:34;13.80;99.90
22249;DHT22;67538;52.180;5.646;2023-10-08T06:06:14;13.80;99.90
22249;DHT22;67538;52.180;5.646;2023-10-08T06:09:03;13.80;99.90
22249;DHT22;67538;52.180;5.646;2023-10-08T06:12:01;13.80;99.90
22249;DHT22;67538;52.180;5.646;2023-10-08T06:14:45;13.70;99.90
22249;DHT22;67538;52.180;5.646;2023-10-08T06:17:30;13.70;99.90
22249;DHT22;67538;52.180;5.646;2023-10-08T06:20:14;13.70;99.90
22249;DHT22;67538;52.180;5.646;2023-10-08T06:22:48;13.70;99.90
22249;DHT22;67538;52.180;5.646;2023-10-08T06:25:15;13.70;99.90
22249;DHT22;67538;52.180;5.646;2023-10-08T06:27:50;13.70;99.90
22249;DHT22;67538;52.180;5.646;2023-10-08T06:30:21;13.70;99.90
22249;DHT22;67538;52.180;5.646;2023-10-08T06:32:55;13.70;99.90
22249;DHT22;67538;52.180;5.646;2023-10-08T06:35:22;13.70;99.90
22249;DHT22;67538;52.180;5.646;2023-10-08T06:37:53;13.70;99.90
22249;DHT22;67538;52.180;5.646;2023-10-08T06:40:25;13.70;99.90
22249;DHT22;67538;52.180;5.646;2023-10-08T06:43:10;13.70;99.90
22249;DHT22;67538;52.180;5.646;2023-10-08T06:45:50;13.70;99.90
22249;DHT22;67538;52.180;5.646;2023-10-08T06:48:19;13.70;99.90
22249;DHT22;67538;52.180;5.646;2023-10-08T06:50:48;13.70;99.90
22249;DHT22;67538;52.180;5.646;2023-10-08T06:53:15;13.70;99.90
22249;DHT22;67538;52.180;5.646;2023-10-08T06:55:44;13.80;99.90
22249;DHT22;67538;52.180;5.646;2023-10-08T06:58:15;13.80;99.90
22249;DHT22;67538;52.180;5.646;2023-10-08T07:00:43;13.80;99.90
22249;DHT22;67538;52.180;5.646;2023-10-08T07:03:15;13.80;99.90
22249;DHT22;67538;52.180;5.646;2023-10-08T07:05:45;13.80;99.90
22249;DHT22;67538;52.180;5.646;2023-10-08T07:08:21;13.80;99.90
22249;DHT22;67538;52.180;5.646;2023-10-08T07:10:49;13.80;99.90
22249;DHT22;67538;52.180;5.646;2023-10-08T07:13:18;13.90;99.90
22249;DHT22;67538;52.180;5.646;2023-10-08T07:15:48;13.80;99.90
22249;DHT22;67538;52.180;5.646;2023-10-08T07:18:16;13.90;99.90
22249;DHT22;67538;52.180;5.646;2023-10-08T07:20:50;13.90;99.90
22249;DHT22;67538;52.180;5.646;2023-10-08T07:23:19;13.90;99.90
22249;DHT22;67538;52.180;5.646;2023-10-08T07:25:53;13.90;99.90
22249;DHT22;67538;52.180;5.646;2023-10-08T07:28:25;13.90;99.90
22249;DHT22;67538;52.180;5.646;2023-10-08T07:30:53;13.90;99.90
22249;DHT22;67538;52.180;5.646;2023-10-08T07:33:20;13.90;99.90
22249;DHT22;67538;52.180;5.646;2023-10-08T07:35:51;14.00;99.90
22249;DHT22;67538;52.180;5.646;2023-10-08T07:38:25;14.00;99.90
22249;DHT22;67538;52.180;5.646;2023-10-08T07:40:56;14.00;99.90
22249;DHT22;67538;52.180;5.646;2023-10-08T07:43:24;14.10;99.90
22249;DHT22;67538;52.180;5.646;2023-10-08T07:45:51;14.10;99.90
22249;DHT22;67538;52.180;5.646;2023-10-08T07:48:20;14.10;99.90
22249;DHT22;67538;52.180;5.646;2023-10-08T07:50:55;14.10;99.90
22249;DHT22;67538;52.180;5.646;2023-10-08T07:53:22;14.20;99.90
22249;DHT22;67538;52.180;5.646;2023-10-08T07:55:50;14.20;99.90
22249;DHT22;67538;52.180;5.646;2023-10-08T07:58:18;14.20;99.90
22249;DHT22;67538;52.180;5.646;2023-10-08T08:00:47;14.20;99.90
22249;DHT22;67538;52.180;5.646;2023-10-08T08:03:21;14.30;99.90
22249;DHT22;67538;52.180;5.646;2023-10-08T08:05:49;14.40;99.90
22249;DHT22;67538;52.180;5.646;2023-10-08T08:08:20;14.20;99.90
22249;DHT22;67538;52.180;5.646;2023-10-08T08:10:49;14.20;99.90
22249;DHT22;67538;52.180;5.646;2023-10-08T08:13:24;14.20;99.90
22249;DHT22;67538;52.180;5.646;2023-10-08T08:15:55;14.30;99.90
22249;DHT22;67538;52.180;5.646;2023-10-08T08:18:25;14.40;99.90
22249;DHT22;67538;52.180;5.646;2023-10-08T08:20:59;14.60;99.90
22249;DHT22;67538;52.180;5.646;2023-10-08T08:23:31;14.70;99.90
22249;DHT22;67538;52.180;5.646;2023-10-08T08:25:58;14.70;99.90
22249;DHT22;67538;52.180;5.646;2023-10-08T08:28:39;14.80;99.90
22249;DHT22;67538;52.180;5.646;2023-10-08T08:31:07;14.70;99.90
22249;DHT22;67538;52.180;5.646;2023-10-08T08:33:40;14.70;99.90
22249;DHT22;67538;52.180;5.646;2023-10-08T08:36:22;14.70;99.90
22249;DHT22;67538;52.180;5.646;2023-10-08T08:38:49;14.80;99.90
22249;DHT22;67538;52.180;5.646;2023-10-08T08:41:17;14.80;99.90
22249;DHT22;67538;52.180;5.646;2023-10-08T08:43:48;14.80;99.90
22249;DHT22;67538;52.180;5.646;2023-10-08T08:46:17;14.90;99.90
22249;DHT22;67538;52.180;5.646;2023-10-08T08:48:44;14.80;99.90
22249;DHT22;67538;52.180;5.646;2023-10-08T08:51:13;14.80;99.90
22249;DHT22;67538;52.180;5.646;2023-10-08T08:53:40;14.90;99.90
22249;DHT22;67538;52.180;5.646;2023-10-08T08:56:09;15.00;99.90
22249;DHT22;67538;52.180;5.646;2023-10-08T08:58:37;15.00;99.90
22249;DHT22;67538;52.180;5.646;2023-10-08T09:01:11;15.10;99.90
22249;DHT22;67538;52.180;5.646;2023-10-08T09:03:41;15.30;99.90
22249;DHT22;67538;52.180;5.646;2023-10-08T09:06:08;15.40;99.90
22249;DHT22;67538;52.180;5.646;2023-10-08T09:08:36;15.60;99.90
22249;DHT22;67538;52.180;5.646;2023-10-08T09:11:03;15.80;99.90
22249;DHT22;67538;52.180;5.646;2023-10-08T09:13:31;15.80;99.90
22249;DHT22;67538;52.180;5.646;2023-10-08T09:16:07;15.80;99.90
22249;DHT22;67538;52.180;5.646;2023-10-08T09:18:35;15.80;99.90
22249;DHT22;67538;52.180;5.646;2023-10-08T09:21:10;15.80;99.90
22249;DHT22;67538;52.180;5.646;2023-10-08T09:23:41;15.80;99.90
22249;DHT22;67538;52.180;5.646;2023-10-08T09:26:13;15.90;99.90
22249;DHT22;67538;52.180;5.646;2023-10-08T09:28:44;15.90;99.90
22249;DHT22;67538;52.180;5.646;2023-10-08T09:31:13;16.10;99.90
22249;DHT22;67538;52.180;5.646;2023-10-08T09:33:41;16.20;99.90
22249;DHT22;67538;52.180;5.646;2023-10-08T09:36:10;16.50;99.90
22249;DHT22;67538;52.180;5.646;2023-10-08T09:38:45;16.60;99.90
22249;DHT22;67538;52.180;5.646;2023-10-08T09:41:14;16.60;99.90
22249;DHT22;67538;52.180;5.646;2023-10-08T09:43:42;16.70;99.90
22249;DHT22;67538;52.180;5.646;2023-10-08T09:46:16;16.70;99.90
22249;DHT22;67538;52.180;5.646;2023-10-08T09:48:49;16.90;99.90
22249;DHT22;67538;52.180;5.646;2023-10-08T09:51:20;16.90;99.90
22249;DHT22;67538;52.180;5.646;2023-10-08T09:53:56;17.00;99.90
22249;DHT22;67538;52.180;5.646;2023-10-08T09:56:31;17.10;99.90
22249;DHT22;67538;52.180;5.646;2023-10-08T09:59:00;17.10;99.90
22249;DHT22;67538;52.180;5.646;2023-10-08T10:01:28;17.00;99.90
22249;DHT22;67538;52.180;5.646;2023-10-08T10:03:57;17.00;99.90
22249;DHT22;67538;52.180;5.646;2023-10-08T10:06:28;17.10;99.90
22249;DHT22;67538;52.180;5.646;2023-10-08T10:08:57;17.20;99.90
22249;DHT22;67538;52.180;5.646;2023-10-08T10:11:28;17.20;99.90
22249;DHT22;67538;52.180;5.646;2023-10-08T10:13:59;17.30;99.90
22249;DHT22;67538;52.180;5.646;2023-10-08T10:16:27;17.40;99.90
22249;DHT22;67538;52.180;5.646;2023-10-08T10:18:55;17.40;99.90
22249;DHT22;67538;52.180;5.646;2023-10-08T10:21:31;17.30;99.90
22249;DHT22;67538;52.180;5.646;2023-10-08T10:23:59;17.40;99.90
22249;DHT22;67538;52.180;5.646;2023-10-08T10:26:33;17.40;99.90
22249;DHT22;67538;52.180;5.646;2023-10-08T10:29:20;17.30;99.90
22249;DHT22;67538;52.180;5.646;2023-10-08T10:31:48;17.30;99.90
22249;DHT22;67538;52.180;5.646;2023-10-08T10:34:20;17.30;99.90
22249;DHT22;67538;52.180;5.646;2023-10-08T10:36:50;17.20;99.90
22249;DHT22;67538;52.180;5.646;2023-10-08T10:39:22;17.30;99.90
22249;DHT22;67538;52.180;5.646;2023-10-08T10:41:54;17.20;99.90
22249;DHT22;67538;52.180;5.646;2023-10-08T10:44:27;17.20;99.90
22249;DHT22;67538;52.180;5.646;2023-10-08T10:46:56;17.20;99.90
22249;DHT22;67538;52.180;5.646;2023-10-08T10:49:37;17.30;99.90
22249;DHT22;67538;52.180;5.646;2023-10-08T10:52:15;17.30;99.90
22249;DHT22;67538;52.180;5.646;2023-10-08T10:54:52;17.30;99.90
22249;DHT22;67538;52.180;5.646;2023-10-08T10:57:46;17.40;99.90
22249;DHT22;67538;52.180;5.646;2023-10-08T11:00:20;17.60;99.90
22249;DHT22;67538;52.180;5.646;2023-10-08T11:03:03;17.60;99.90
22249;DHT22;67538;52.180;5.646;2023-10-08T11:05:43;17.60;99.90
22249;DHT22;67538;52.180;5.646;2023-10-08T11:08:15;17.60;99.90
22249;DHT22;67538;52.180;5.646;2023-10-08T11:10:45;17.60;99.90
22249;DHT22;67538;52.180;5.646;2023-10-08T11:13:17;17.60;99.90
22249;DHT22;67538;52.180;5.646;2023-10-08T11:15:45;17.70;99.90
22249;DHT22;67538;52.180;5.646;2023-10-08T11:18:17;17.70;99.90
22249;DHT22;67538;52.180;5.646;2023-10-08T11:20:43;17.70;99.90
22249;DHT22;67538;52.180;5.646;2023-10-08T11:23:11;17.80;99.90
22249;DHT22;67538;52.180;5.646;2023-10-08T11:25:55;17.90;99.90
22249;DHT22;67538;52.180;5.646;2023-10-08T11:28:26;17.90;99.90
22249;DHT22;67538;52.180;5.646;2023-10-08T11:30:54;17.80;99.90
22249;DHT22;67538;52.180;5.646;2023-10-08T11:33:25;17.80;99.90
22249;DHT22;67538;52.180;5.646;2023-10-08T11:35:57;17.90;99.90
22249;DHT22;67538;52.180;5.646;2023-10-08T11:38:25;17.90;99.90
22249;DHT22;67538;52.180;5.646;2023-10-08T11:40:55;17.90;99.90
22249;DHT22;67538;52.180;5.646;2023-10-08T11:43:24;17.90;99.90
22249;DHT22;67538;52.180;5.646;2023-10-08T11:45:51;17.90;99.90
22249;DHT22;67538;52.180;5.646;2023-10-08T11:48:19;17.90;99.90
22249;DHT22;67538;52.180;5.646;2023-10-08T11:50:54;17.90;99.90
22249;DHT22;67538;52.180;5.646;2023-10-08T11:53:23;17.80;99.90
22249;DHT22;67538;52.180;5.646;2023-10-08T11:55:51;17.80;99.90
22249;DHT22;67538;52.180;5.646;2023-10-08T11:58:23;17.60;99.90
22249;DHT22;67538;52.180;5.646;2023-10-08T12:01:03;17.60;99.90
22249;DHT22;67538;52.180;5.646;2023-10-08T12:03:30;17.50;99.90
22249;DHT22;67538;52.180;5.646;2023-10-08T12:06:00;17.40;99.90
22249;DHT22;67538;52.180;5.646;2023-10-08T12:08:30;17.30;99.90
22249;DHT22;67538;52.180;5.646;2023-10-08T12:11:05;17.10;99.90
22249;DHT22;67538;52.180;5.646;2023-10-08T12:13:38;17.00;99.90
22249;DHT22;67538;52.180;5.646;2023-10-08T12:16:11;16.90;99.90
22249;DHT22;67538;52.180;5.646;2023-10-08T12:18:44;17.00;99.90
22249;DHT22;67538;52.180;5.646;2023-10-08T12:21:14;17.00;99.90
22249;DHT22;67538;52.180;5.646;2023-10-08T12:23:43;17.10;99.90
22249;DHT22;67538;52.180;5.646;2023-10-08T12:26:12;17.10;99.90
22249;DHT22;67538;52.180;5.646;2023-10-08T12:28:43;17.10;99.90
22249;DHT22;67538;52.180;5.646;2023-10-08T12:31:12;17.00;99.90
22249;DHT22;67538;52.180;5.646;2023-10-08T12:33:41;16.90;99.90
22249;DHT22;67538;52.180;5.646;2023-10-08T12:36:09;16.80;99.90
22249;DHT22;67538;52.180;5.646;2023-10-08T12:38:40;16.90;99.90
22249;DHT22;67538;52.180;5.646;2023-10-08T12:41:08;16.90;99.90
22249;DHT22;67538;52.180;5.646;2023-10-08T12:43:39;16.90;99.90
22249;DHT22;67538;52.180;5.646;2023-10-08T12:46:09;16.90;99.90
22249;DHT22;67538;52.180;5.646;2023-10-08T12:48:44;16.90;99.90
22249;DHT22;67538;52.180;5.646;2023-10-08T12:51:14;16.80;99.90
22249;DHT22;67538;52.180;5.646;2023-10-08T12:53:42;16.70;99.90
22249;DHT22;67538;52.180;5.646;2023-10-08T12:56:17;16.80;99.90
22249;DHT22;67538;52.180;5.646;2023-10-08T12:58:47;16.80;99.90
22249;DHT22;67538;52.180;5.646;2023-10-08T13:01:20;16.80;99.90
22249;DHT22;67538;52.180;5.646;2023-10-08T13:03:48;16.80;99.90
22249;DHT22;67538;52.180;5.646;2023-10-08T13:06:16;16.90;99.90
22249;DHT22;67538;52.180;5.646;2023-10-08T13:08:49;16.80;99.90
22249;DHT22;67538;52.180;5.646;2023-10-08T13:11:18;16.80;99.90
22249;DHT22;67538;52.180;5.646;2023-10-08T13:13:49;16.60;99.90
22249;DHT22;67538;52.180;5.646;2023-10-08T13:16:17;16.60;99.90
22249;DHT22;67538;52.180;5.646;2023-10-08T13:18:46;16.60;99.90
22249;DHT22;67538;52.180;5.646;2023-10-08T13:21:13;16.60;99.90
22249;DHT22;67538;52.180;5.646;2023-10-08T13:23:40;16.50;99.90
22249;DHT22;67538;52.180;5.646;2023-10-08T13:26:08;16.60;99.90
22249;DHT22;67538;52.180;5.646;2023-10-08T13:28:35;16.60;99.90
22249;DHT22;67538;52.180;5.646;2023-10-08T13:31:03;16.60;99.90
22249;DHT22;67538;52.180;5.646;2023-10-08T13:33:36;16.60;99.90
22249;DHT22;67538;52.180;5.646;2023-10-08T13:36:06;16.50;99.90
22249;DHT22;67538;52.180;5.646;2023-10-08T13:38:39;16.50;99.90
22249;DHT22;67538;52.180;5.646;2023-10-08T13:41:07;16.50;99.90
22249;DHT22;67538;52.180;5.646;2023-10-08T13:43:41;16.50;99.90
22249;DHT22;67538;52.180;5.646;2023-10-08T13:46:12;16.50;99.90
22249;DHT22;67538;52.180;5.646;2023-10-08T13:48:40;16.50;99.90
22249;DHT22;67538;52.180;5.646;2023-10-08T13:51:09;16.50;99.90
22249;DHT22;67538;52.180;5.646;2023-10-08T13:53:40;16.50;99.90
22249;DHT22;67538;52.180;5.646;2023-10-08T13:56:10;16.50;99.90
22249;DHT22;67538;52.180;5.646;2023-10-08T13:58:38;16.50;99.90
22249;DHT22;67538;52.180;5.646;2023-10-08T14:01:11;16.50;99.90
22249;DHT22;67538;52.180;5.646;2023-10-08T14:03:46;16.50;99.90
22249;DHT22;67538;52.180;5.646;2023-10-08T14:06:15;16.50;99.90
22249;DHT22;67538;52.180;5.646;2023-10-08T14:08:43;16.50;99.90
22249;DHT22;67538;52.180;5.646;2023-10-08T14:11:18;16.50;99.90
22249;DHT22;67538;52.180;5.646;2023-10-08T14:13:45;16.50;99.90
22249;DHT22;67538;52.180;5.646;2023-10-08T14:16:14;16.50;99.90
22249;DHT22;67538;52.180;5.646;2023-10-08T14:18:43;16.50;99.90
22249;DHT22;67538;52.180;5.646;2023-10-08T14:21:17;16.50;99.90
22249;DHT22;67538;52.180;5.646;2023-10-08T14:23:45;16.50;99.90
22249;DHT22;67538;52.180;5.646;2023-10-08T14:26:13;16.50;99.90
22249;DHT22;67538;52.180;5.646;2023-10-08T14:28:41;16.50;99.90
22249;DHT22;67538;52.180;5.646;2023-10-08T14:31:17;16.40;99.90
22249;DHT22;67538;52.180;5.646;2023-10-08T14:33:48;16.40;99.90
22249;DHT22;67538;52.180;5.646;2023-10-08T14:36:32;16.30;99.90
22249;DHT22;67538;52.180;5.646;2023-10-08T14:39:17;16.30;99.90
22249;DHT22;67538;52.180;5.646;2023-10-08T14:42:10;16.30;99.90
22249;DHT22;67538;52.180;5.646;2023-10-08T14:44:54;16.30;99.90
22249;DHT22;67538;52.180;5.646;2023-10-08T14:47:22;16.30;99.90
22249;DHT22;67538;52.180;5.646;2023-10-08T14:49:49;16.30;99.90
22249;DHT22;67538;52.180;5.646;2023-10-08T14:52:18;16.30;99.90
22249;DHT22;67538;52.180;5.646;2023-10-08T14:54:45;16.30;99.90
22249;DHT22;67538;52.180;5.646;2023-10-08T14:57:13;16.30;99.90
22249;DHT22;67538;52.180;5.646;2023-10-08T14:59:41;16.30;99.90
22249;DHT22;67538;52.180;5.646;2023-10-08T15:02:08;16.30;99.90
22249;DHT22;67538;52.180;5.646;2023-10-08T15:04:36;16.30;99.90
22249;DHT22;67538;52.180;5.646;2023-10-08T15:07:05;16.40;99.90
22249;DHT22;67538;52.180;5.646;2023-10-08T15:09:36;16.40;99.90
22249;DHT22;67538;52.180;5.646;2023-10-08T15:12:03;16.40;99.90
22249;DHT22;67538;52.180;5.646;2023-10-08T15:14:31;16.40;99.90
22249;DHT22;67538;52.180;5.646;2023-10-08T15:16:59;16.40;99.90
22249;DHT22;67538;52.180;5.646;2023-10-08T15:19:27;16.40;99.90
22249;DHT22;67538;52.180;5.646;2023-10-08T15:21:55;16.30;99.90
22249;DHT22;67538;52.180;5.646;2023-10-08T15:24:24;16.30;99.90
22249;DHT22;67538;52.180;5.646;2023-10-08T15:26:54;16.30;99.90
22249;DHT22;67538;52.180;5.646;2023-10-08T15:29:21;16.30;99.90
22249;DHT22;67538;52.180;5.646;2023-10-08T15:31:51;16.20;99.90
22249;DHT22;67538;52.180;5.646;2023-10-08T15:34:20;16.20;99.90
22249;DHT22;67538;52.180;5.646;2023-10-08T15:36:47;16.20;99.90
22249;DHT22;67538;52.180;5.646;2023-10-08T15:39:14;16.20;99.90
22249;DHT22;67538;52.180;5.646;2023-10-08T15:41:48;16.20;99.90
22249;DHT22;67538;52.180;5.646;2023-10-08T15:44:17;16.20;99.90
22249;DHT22;67538;52.180;5.646;2023-10-08T15:46:46;16.20;99.90
22249;DHT22;67538;52.180;5.646;2023-10-08T15:49:13;16.20;99.90
22249;DHT22;67538;52.180;5.646;2023-10-08T15:51:40;16.20;99.90
22249;DHT22;67538;52.180;5.646;2023-10-08T15:54:07;16.20;99.90
22249;DHT22;67538;52.180;5.646;2023-10-08T15:56:34;16.10;99.90
22249;DHT22;67538;52.180;5.646;2023-10-08T15:59:02;16.20;99.90